Time;durP1;ratioP1;P1;durP2;ratioP2;P2;SDS_P1;SDS_P2;PMS_P1;PMS_P2;Temp;Humidity;BMP_temperature;BMP_pressure;BME280_temperature;BME280_humidity;BME280_pressure;Samples;Min_cycle;Max_cycle;Signal;HPM_P1;HPM_P2
2022/12/03 00:00:35;;;;;;;32.80;15.75;;;;;;;0.77;100.00;100814.06;4974387;28;20514;-73
2022/12/03 00:03:02;;;;;;;32.20;15.38;;;;;;;0.80;100.00;100821.84;4983626;28;20188;-70
2022/12/03 00:05:29;;;;;;;33.50;15.13;;;;;;;0.48;100.00;100754.97;4985054;28;20388;-72
2022/12/03 00:07:55;;;;;;;33.55;16.08;;;;;;;0.82;100.00;100813.16;4983492;28;20133;-71
2022/12/03 00:10:22;;;;;;;34.90;15.80;;;;;;;0.79;100.00;100807.13;4981118;28;20108;-70
2022/12/03 00:12:48;;;;;;;35.75;16.27;;;;;;;0.82;100.00;100809.69;4983714;28;20053;-71
2022/12/03 00:15:15;;;;;;;38.03;16.90;;;;;;;0.81;100.00;100815.78;4970571;28;20047;-70
2022/12/03 00:17:42;;;;;;;37.20;17.50;;;;;;;0.73;100.00;100800.16;4976949;28;20101;-72
2022/12/03 00:20:15;;;;;;;36.28;18.00;;;;;;;0.83;100.00;100809.69;4973551;28;20126;-73
2022/12/03 00:22:42;;;;;;;39.85;18.65;;;;;;;0.83;100.00;100806.22;4983446;28;20053;-72
2022/12/03 00:25:08;;;;;;;40.30;17.63;;;;;;;0.69;100.00;100773.22;4979882;28;20431;-71
2022/12/03 00:27:35;;;;;;;38.80;18.20;;;;;;;0.90;100.00;100813.19;4977875;28;20072;-71
2022/12/03 00:30:02;;;;;;;40.42;18.58;;;;;;;0.90;100.00;100802.75;4971776;28;20138;-71
2022/12/03 00:32:29;;;;;;;42.83;18.60;;;;;;;0.99;100.00;100795.78;4977243;28;20047;-69
2022/12/03 00:34:55;;;;;;;46.92;19.65;;;;;;;0.98;100.00;100804.47;4972348;28;20062;-72
2022/12/03 00:37:22;;;;;;;42.65;18.92;;;;;;;0.97;100.00;100796.66;4976163;28;20471;-71
2022/12/03 00:39:49;;;;;;;49.38;19.77;;;;;;;1.00;100.00;100802.72;4982146;28;20039;-72
2022/12/03 00:42:15;;;;;;;44.55;20.40;;;;;;;1.03;100.00;100797.50;4979648;28;20061;-72
2022/12/03 00:44:42;;;;;;;46.15;20.60;;;;;;;1.05;100.00;100794.91;4982047;28;20043;-71
2022/12/03 00:47:09;;;;;;;44.47;19.48;;;;;;;1.06;100.00;100796.66;4984393;28;20050;-72
2022/12/03 00:49:35;;;;;;;47.88;20.98;;;;;;;1.04;100.00;100795.78;4975992;28;20053;-71
2022/12/03 00:52:02;;;;;;;50.60;21.65;;;;;;;0.98;100.00;100794.03;4975647;28;20077;-73
2022/12/03 00:54:29;;;;;;;45.80;20.35;;;;;;;1.04;100.00;100790.56;4986096;28;20064;-71
2022/12/03 00:56:57;;;;;;;46.67;21.67;;;;;;;1.08;100.00;100796.66;4981765;28;20050;-69
2022/12/03 00:59:24;;;;;;;45.40;21.23;;;;;;;1.07;100.00;100797.50;4979679;28;20054;-69
2022/12/03 01:01:50;;;;;;;50.72;22.02;;;;;;;1.05;100.00;100790.56;4978457;28;20046;-71
2022/12/03 01:04:17;;;;;;;48.72;21.35;;;;;;;1.08;100.00;100794.03;4980018;28;20130;-70
2022/12/03 01:06:44;;;;;;;48.70;21.42;;;;;;;1.07;100.00;100792.28;4977740;28;20043;-71
2022/12/03 01:09:10;;;;;;;51.08;20.73;;;;;;;1.07;100.00;100793.16;4980954;28;20050;-71
2022/12/03 01:11:37;;;;;;;52.08;21.48;;;;;;;1.08;100.00;100794.91;4977976;28;20074;-70
2022/12/03 01:14:13;;;;;;;48.40;21.20;;;;;;;1.09;100.00;100796.66;4984997;28;20047;-71
2022/12/03 01:16:40;;;;;;;45.35;21.05;;;;;;;1.05;100.00;100798.38;4981601;28;20050;-72
2022/12/03 01:19:09;;;;;;;43.65;19.83;;;;;;;1.05;100.00;100795.78;4987203;28;20474;-71
2022/12/03 01:21:36;;;;;;;44.53;20.23;;;;;;;1.09;100.00;100801.00;4979112;28;20491;-71
2022/12/03 01:24:03;;;;;;;49.42;21.55;;;;;;;1.13;100.00;100805.31;4985436;28;20116;-71
2022/12/03 01:26:30;;;;;;;43.70;19.95;;;;;;;1.11;100.00;100799.22;4985353;28;20146;-72
2022/12/03 01:28:56;;;;;;;47.63;19.67;;;;;;;1.09;100.00;100801.00;4986480;28;20052;-72
2022/12/03 01:34:08;;;;;;;44.40;19.77;;;;;;;1.18;100.00;100812.25;4985625;28;20050;-73
2022/12/03 01:36:35;;;;;;;42.25;19.67;;;;;;;1.22;100.00;100815.75;4987534;28;20419;-69
2022/12/03 01:39:03;;;;;;;42.03;18.50;;;;;;;1.00;100.00;100771.44;4984736;28;20125;-71
2022/12/03 01:41:31;;;;;;;37.88;17.92;;;;;;;1.21;100.00;100806.19;4977115;28;20043;-73
2022/12/03 01:43:58;;;;;;;43.03;18.85;;;;;;;1.02;100.00;100779.25;4983331;28;20050;-72
2022/12/03 01:46:33;;;;;;;39.88;18.92;;;;;;;1.20;100.00;100802.69;4981126;28;20050;-69
2022/12/03 01:49:01;;;;;;;37.40;18.33;;;;;;;1.21;100.00;100811.38;4980792;28;20701;-72
2022/12/03 01:51:29;;;;;;;37.78;17.90;;;;;;;1.18;100.00;100803.56;4976261;28;20051;-73
2022/12/03 01:54:05;;;;;;;39.92;18.38;;;;;;;1.06;100.00;100786.22;4986387;28;20078;-73
2022/12/03 01:56:32;;;;;;;37.10;17.25;;;;;;;1.20;100.00;100800.09;4978168;28;20572;-71
2022/12/03 01:58:58;;;;;;;41.25;17.98;;;;;;;1.22;100.00;100813.13;4979571;28;20397;-72
2022/12/03 02:01:25;;;;;;;38.55;18.20;;;;;;;1.18;100.00;100812.25;4971967;28;20060;-72
2022/12/03 02:03:51;;;;;;;36.33;16.60;;;;;;;1.04;100.00;100783.59;4976797;28;20047;-72
2022/12/03 02:06:21;;;;;;;34.78;17.20;;;;;;;1.20;100.00;100802.69;4981873;28;20049;-72
2022/12/03 02:08:48;;;;;;;34.33;16.75;;;;;;;1.13;100.00;100797.47;4974493;28;20486;-72
2022/12/03 02:11:36;;;;;;;32.97;16.17;;;;;;;1.18;100.00;100807.03;4972077;28;20057;-71
2022/12/03 02:14:06;;;;;;;33.25;15.73;;;;;;;1.15;100.00;100812.25;4980647;28;20359;-72
2022/12/03 02:16:35;;;;;;;34.63;17.42;;;;;;;1.05;100.00;100801.00;4986368;28;20141;-70
2022/12/03 02:19:07;;;;;;;34.38;15.85;;;;;;;0.91;100.00;100776.69;4984746;28;20049;-71
2022/12/03 02:22:13;;;;;;;36.22;16.70;;;;;;;0.92;100.00;100782.75;4971356;28;20043;-71
2022/12/03 02:24:58;;;;;;;33.05;15.55;;;;;;;1.05;100.00;100807.94;4982851;28;20073;-70
2022/12/03 02:27:26;;;;;;;31.50;15.98;;;;;;;1.06;100.00;100812.28;4975667;28;20142;-71
2022/12/03 02:29:53;;;;;;;31.15;15.63;;;;;;;1.09;100.00;100806.22;4983113;28;20046;-71
2022/12/03 02:32:22;;;;;;;31.58;14.70;;;;;;;0.94;100.00;100776.69;4974712;28;20050;-71
2022/12/03 02:34:50;;;;;;;30.95;15.75;;;;;;;1.12;100.00;100811.38;4982210;28;20069;-73
2022/12/03 02:37:24;;;;;;;31.13;15.95;;;;;;;1.09;100.00;100795.78;4981660;28;20072;-71
2022/12/03 02:39:55;;;;;;;31.35;14.45;;;;;;;1.16;100.00;100806.19;4984437;28;20486;-71
2022/12/03 02:42:34;;;;;;;30.25;14.60;;;;;;;1.08;100.00;100783.59;4975963;28;20055;-70
2022/12/03 02:45:09;;;;;;;28.00;14.40;;;;;;;1.15;100.00;100803.56;4980965;28;20088;-71
2022/12/03 02:47:46;;;;;;;28.73;14.63;;;;;;;1.17;100.00;100801.81;4972556;28;20047;-71
2022/12/03 02:50:16;;;;;;;26.65;13.93;;;;;;;1.16;100.00;100795.75;4979282;28;20053;-69
2022/12/03 02:52:45;;;;;;;27.25;14.00;;;;;;;1.16;100.00;100794.88;4980605;28;20078;-71
2022/12/03 02:55:15;;;;;;;30.20;14.80;;;;;;;1.18;100.00;100807.03;4986122;28;20489;-70
2022/12/03 02:57:45;;;;;;;26.75;13.55;;;;;;;1.20;100.00;100796.63;4980809;28;20959;-72
2022/12/03 03:00:12;;;;;;;28.27;13.63;;;;;;;1.20;100.00;100799.22;4981330;28;20056;-71
2022/12/03 03:02:40;;;;;;;27.20;12.93;;;;;;;1.21;100.00;100795.75;4973439;28;20133;-73
2022/12/03 03:05:10;;;;;;;24.95;13.60;;;;;;;1.20;100.00;100799.22;4977029;28;20129;-71
2022/12/03 03:07:38;;;;;;;24.23;13.30;;;;;;;1.18;100.00;100800.97;4980298;28;20114;-73
2022/12/03 03:10:07;;;;;;;25.98;13.05;;;;;;;1.17;100.00;100796.63;4979630;28;20050;-74
2022/12/03 03:12:34;;;;;;;25.50;12.43;;;;;;;1.20;100.00;100799.22;4974954;28;20091;-74
2022/12/03 03:15:06;;;;;;;27.75;13.27;;;;;;;1.18;100.00;100804.44;4981917;28;20077;-70
2022/12/03 03:17:33;;;;;;;27.95;13.43;;;;;;;1.15;100.00;100800.97;4980603;28;20503;-71
2022/12/03 03:19:59;;;;;;;24.70;13.18;;;;;;;1.17;100.00;100796.63;4983495;28;20038;-72
2022/12/03 03:22:36;;;;;;;24.38;12.48;;;;;;;1.16;100.00;100803.56;4975086;28;20144;-71
2022/12/03 03:25:04;;;;;;;24.88;13.07;;;;;;;1.17;100.00;100794.88;4978920;28;20802;-72
2022/12/03 03:27:31;;;;;;;25.75;13.07;;;;;;;1.19;100.00;100802.69;4983773;28;20058;-71
2022/12/03 03:29:58;;;;;;;23.17;12.60;;;;;;;1.16;100.00;100802.69;4977878;28;20052;-70
2022/12/03 03:32:26;;;;;;;24.63;12.38;;;;;;;1.03;100.00;100776.66;4973326;28;20055;-74
2022/12/03 03:34:54;;;;;;;25.80;13.43;;;;;;;1.21;100.00;100803.56;4984140;28;20448;-74
2022/12/03 03:37:22;;;;;;;24.60;12.80;;;;;;;1.19;100.00;100802.69;4978795;28;20105;-73
2022/12/03 03:39:49;;;;;;;21.92;11.93;;;;;;;1.08;100.00;100779.25;4984165;28;20061;-70
2022/12/03 03:42:16;;;;;;;21.88;12.23;;;;;;;1.28;100.00;100795.69;4976774;28;20122;-71
2022/12/03 03:44:43;;;;;;;21.42;11.23;;;;;;;1.25;100.00;100792.25;4978155;28;20054;-72
2022/12/03 03:47:09;;;;;;;23.25;12.27;;;;;;;1.08;100.00;100773.16;4977197;28;20054;-73
2022/12/03 03:49:36;;;;;;;21.98;12.32;;;;;;;1.20;100.00;100796.63;4985053;28;20077;-72
2022/12/03 03:52:03;;;;;;;22.98;12.30;;;;;;;1.04;100.00;100781.00;4974064;28;20325;-73
2022/12/03 03:54:30;;;;;;;24.08;11.98;;;;;;;1.11;100.00;100801.81;4982645;28;20121;-72
2022/12/03 03:56:57;;;;;;;20.30;11.65;;;;;;;1.09;100.00;100790.56;4980433;28;20042;-71
2022/12/03 03:59:23;;;;;;;21.38;11.18;;;;;;;1.18;100.00;100783.56;4982820;28;20042;-73
2022/12/03 04:01:50;;;;;;;22.48;12.15;;;;;;;1.14;100.00;100786.19;4972660;28;20149;-73
2022/12/03 04:04:22;;;;;;;25.52;12.57;;;;;;;1.16;100.00;100784.44;4982837;28;20149;-71
2022/12/03 04:06:49;;;;;;;24.02;12.45;;;;;;;1.14;100.00;100784.44;4980702;28;20070;-72
2022/12/03 04:09:16;;;;;;;22.77;11.70;;;;;;;1.10;100.00;100779.25;4980910;28;20052;-74
2022/12/03 04:14:27;;;;;;;21.95;12.07;;;;;;;1.09;100.00;100774.91;4980951;28;20483;-70
2022/12/03 04:16:56;;;;;;;24.08;12.18;;;;;;;1.04;100.00;100772.31;4978526;28;20058;-72
2022/12/03 04:19:22;;;;;;;21.92;11.98;;;;;;;0.97;100.00;100761.00;4982778;28;20384;-73
2022/12/03 04:24:34;;;;;;;23.42;12.38;;;;;;;1.00;100.00;100768.81;4980588;28;20053;-74
2022/12/03 04:29:46;;;;;;;20.88;11.38;;;;;;;0.92;100.00;100773.22;4980671;28;20434;-69
2022/12/03 04:37:43;;;;;;;26.60;13.20;;;;;;;0.84;100.00;100759.31;4982778;28;20455;-74
2022/12/03 04:42:55;;;;;;;25.23;12.52;;;;;;;0.86;100.00;100759.31;4970884;28;22129;-72
2022/12/03 04:45:21;;;;;;;24.48;12.70;;;;;;;0.88;100.00;100760.16;4978017;28;21270;-73
2022/12/03 04:47:48;;;;;;;25.70;13.18;;;;;;;0.94;100.00;100758.44;4974752;28;20061;-73
2022/12/03 04:50:15;;;;;;;25.27;12.55;;;;;;;0.99;100.00;100756.66;4981621;28;20047;-72
2022/12/03 04:52:41;;;;;;;24.35;12.90;;;;;;;0.90;100.00;100719.31;4969707;28;20113;-71
2022/12/03 04:55:10;;;;;;;24.42;12.63;;;;;;;1.05;100.00;100753.19;4986858;28;20050;-71
2022/12/03 04:57:37;;;;;;;23.90;12.88;;;;;;;1.07;100.00;100753.19;4981033;28;20688;-71
2022/12/03 05:00:04;;;;;;;25.88;12.07;;;;;;;1.02;100.00;100759.28;4985586;28;20125;-70
2022/12/03 05:02:31;;;;;;;23.80;12.80;;;;;;;0.91;100.00;100745.41;4972395;28;20055;-70
2022/12/03 05:04:57;;;;;;;24.33;12.65;;;;;;;0.77;100.00;100726.31;4989805;28;20050;-71
2022/12/03 05:07:24;;;;;;;25.42;12.48;;;;;;;0.91;100.00;100750.59;4979185;28;20120;-72
2022/12/03 05:09:51;;;;;;;27.88;14.25;;;;;;;0.91;100.00;100753.22;4976737;28;20133;-69
2022/12/03 05:12:17;;;;;;;23.02;12.75;;;;;;;0.95;100.00;100752.31;4983542;28;20063;-72
2022/12/03 05:14:44;;;;;;;24.48;13.43;;;;;;;0.93;100.00;100759.31;4985221;28;20038;-72
2022/12/03 05:17:10;;;;;;;24.63;12.65;;;;;;;0.92;100.00;100761.91;4982497;28;20125;-68
2022/12/03 05:22:23;;;;;;;26.70;12.57;;;;;;;0.87;100.00;100751.47;4974665;28;20068;-72
2022/12/03 05:24:49;;;;;;;23.73;12.43;;;;;;;1.00;100.00;100766.22;4986688;28;20043;-73
2022/12/03 05:27:16;;;;;;;23.17;12.27;;;;;;;1.00;100.00;100762.75;4971300;28;20074;-72
2022/12/03 05:29:49;;;;;;;26.30;12.90;;;;;;;0.88;100.00;100742.78;4984172;28;20487;-73
2022/12/03 05:32:16;;;;;;;25.63;12.80;;;;;;;1.07;100.00;100774.03;4980016;28;20070;-70
2022/12/03 05:34:42;;;;;;;22.63;12.85;;;;;;;1.05;100.00;100768.81;4984566;28;20118;-72
2022/12/03 05:37:09;;;;;;;23.98;12.50;;;;;;;1.05;100.00;100761.88;4986289;28;20416;-73
2022/12/03 05:39:36;;;;;;;24.25;13.25;;;;;;;1.07;100.00;100766.22;4989874;28;20107;-74
2022/12/03 05:44:48;;;;;;;25.88;12.60;;;;;;;1.02;100.00;100767.09;4984333;28;20499;-69
2022/12/03 05:47:14;;;;;;;24.20;12.90;;;;;;;1.05;100.00;100764.47;4982929;28;20081;-73
2022/12/03 05:49:41;;;;;;;23.58;12.20;;;;;;;1.08;100.00;100767.97;4979888;28;20137;-70
2022/12/03 05:52:07;;;;;;;24.30;12.45;;;;;;;1.01;100.00;100762.75;4980213;28;20137;-70
2022/12/03 05:54:34;;;;;;;22.92;11.45;;;;;;;0.98;100.00;100773.19;4982850;28;20089;-71
2022/12/03 05:57:00;;;;;;;24.88;12.63;;;;;;;0.99;100.00;100771.44;4982285;28;20062;-71
2022/12/03 05:59:27;;;;;;;23.73;11.98;;;;;;;1.02;100.00;100769.69;4980850;28;20053;-74
2022/12/03 06:01:53;;;;;;;22.70;12.00;;;;;;;0.98;100.00;100778.38;4973855;28;20149;-71
2022/12/03 06:04:20;;;;;;;21.85;12.27;;;;;;;0.99;100.00;100772.31;4981267;28;20046;-73
2022/12/03 06:06:46;;;;;;;23.60;11.60;;;;;;;0.97;100.00;100771.44;4984555;28;20042;-73
2022/12/03 06:09:13;;;;;;;22.50;11.85;;;;;;;0.95;100.00;100772.31;4981904;28;20050;-72
2022/12/03 06:11:40;;;;;;;21.08;12.18;;;;;;;0.88;100.00;100762.78;4977680;28;20062;-71
2022/12/03 06:14:07;;;;;;;23.52;12.23;;;;;;;0.96;100.00;100771.44;4979365;28;20471;-70
2022/12/03 06:16:33;;;;;;;21.60;12.13;;;;;;;0.93;100.00;100761.91;4985473;28;20054;-72
2022/12/03 06:19:00;;;;;;;23.20;11.63;;;;;;;0.96;100.00;100772.31;4983609;28;20050;-72
2022/12/03 06:21:27;;;;;;;22.50;11.75;;;;;;;0.93;100.00;100764.50;4980886;28;20131;-72
2022/12/03 06:23:53;;;;;;;22.23;12.43;;;;;;;0.85;100.00;100750.59;4975827;28;20410;-69
2022/12/03 06:26:20;;;;;;;19.75;11.02;;;;;;;0.75;100.00;100729.78;4983476;28;20046;-73
2022/12/03 06:28:48;;;;;;;24.73;12.70;;;;;;;0.90;100.00;100759.31;4981950;28;20054;-72
2022/12/03 06:31:14;;;;;;;22.15;11.70;;;;;;;0.93;100.00;100763.66;4987598;28;20058;-74
2022/12/03 06:33:41;;;;;;;23.48;12.52;;;;;;;0.95;100.00;100752.31;4975512;28;20042;-72
2022/12/03 06:36:08;;;;;;;24.00;12.10;;;;;;;0.95;100.00;100747.09;4981096;28;20288;-73
2022/12/03 06:38:34;;;;;;;23.23;12.63;;;;;;;1.05;100.00;100750.56;4979188;28;20109;-73
2022/12/03 06:41:01;;;;;;;22.77;10.98;;;;;;;1.08;100.00;100749.69;4983991;28;20531;-71
2022/12/03 06:43:29;;;;;;;22.30;12.30;;;;;;;1.12;100.00;100752.28;4976346;28;20549;-72
2022/12/03 06:45:56;;;;;;;22.42;11.77;;;;;;;1.09;100.00;100747.09;4979306;28;20085;-72
2022/12/03 06:48:23;;;;;;;22.10;11.93;;;;;;;1.13;100.00;100753.13;4978342;28;20802;-72
2022/12/03 06:50:49;;;;;;;21.50;12.13;;;;;;;1.09;100.00;100741.88;4978295;28;20062;-72
2022/12/03 06:53:16;;;;;;;21.85;12.13;;;;;;;1.11;100.00;100734.03;4976651;28;20047;-71
2022/12/03 06:55:42;;;;;;;22.73;11.90;;;;;;;1.14;100.00;100742.72;4976291;28;20074;-72
2022/12/03 06:58:09;;;;;;;23.27;12.23;;;;;;;1.10;100.00;100743.63;4984255;28;20151;-72
2022/12/03 07:00:35;;;;;;;23.05;11.63;;;;;;;1.10;100.00;100745.34;4981422;28;20621;-73
2022/12/03 07:03:02;;;;;;;23.45;11.85;;;;;;;1.08;100.00;100745.34;4974245;28;20766;-71
2022/12/03 07:05:29;;;;;;;23.23;12.30;;;;;;;1.10;100.00;100750.56;4983007;28;20054;-73
2022/12/03 07:07:55;;;;;;;24.80;12.45;;;;;;;1.09;100.00;100748.81;4983863;28;20043;-73
2022/12/03 07:10:22;;;;;;;21.80;11.45;;;;;;;1.10;100.00;100737.53;4975614;28;20055;-72
2022/12/03 07:12:49;;;;;;;25.00;12.30;;;;;;;1.09;100.00;100743.63;4978713;28;20046;-70
2022/12/03 07:15:15;;;;;;;22.15;12.27;;;;;;;0.99;100.00;100727.09;4982147;28;20465;-73
2022/12/03 07:17:42;;;;;;;26.35;13.02;;;;;;;1.15;100.00;100744.44;4978332;28;20050;-72
2022/12/03 07:20:09;;;;;;;24.20;13.07;;;;;;;1.17;100.00;100750.53;4976030;28;20181;-71
2022/12/03 07:22:36;;;;;;;26.30;12.93;;;;;;;1.04;100.00;100717.53;4973440;28;20056;-69
2022/12/03 07:25:03;;;;;;;25.23;12.60;;;;;;;1.25;100.00;100755.72;4976829;28;20164;-73
2022/12/03 07:27:29;;;;;;;25.65;13.40;;;;;;;1.07;100.00;100729.72;4981131;28;20057;-70
2022/12/03 07:29:56;;;;;;;25.33;13.57;;;;;;;1.17;100.00;100758.34;4975977;28;20042;-72
2022/12/03 07:32:22;;;;;;;25.27;12.70;;;;;;;1.15;100.00;100757.47;4978604;28;20120;-71
2022/12/03 07:34:49;;;;;;;26.20;13.35;;;;;;;1.18;100.00;100765.31;4978368;28;20074;-71
2022/12/03 07:37:16;;;;;;;24.08;13.27;;;;;;;1.06;100.00;100747.09;4977966;28;20561;-70
2022/12/03 07:39:49;;;;;;;26.42;13.77;;;;;;;1.15;100.00;100764.44;4979343;28;20058;-70
2022/12/03 07:42:15;;;;;;;23.63;13.15;;;;;;;1.21;100.00;100772.25;4974717;28;20396;-74
2022/12/03 07:44:42;;;;;;;26.80;13.18;;;;;;;1.20;100.00;100760.97;4973752;28;20053;-72
2022/12/03 07:47:08;;;;;;;26.75;13.60;;;;;;;1.12;100.00;100746.19;4977400;28;20856;-73
2022/12/03 07:49:35;;;;;;;28.38;13.45;;;;;;;1.30;100.00;100765.25;4981838;28;20054;-70
2022/12/03 07:52:02;;;;;;;27.48;14.25;;;;;;;1.20;100.00;100757.47;4971891;28;20061;-69
2022/12/03 07:54:28;;;;;;;27.20;14.18;;;;;;;1.21;100.00;100764.44;4974264;28;20129;-71
2022/12/03 07:56:55;;;;;;;27.00;14.48;;;;;;;1.28;100.00;100758.31;4982543;28;20082;-73
2022/12/03 07:59:27;;;;;;;28.92;14.27;;;;;;;1.32;100.00;100753.09;4979297;28;20064;-70
2022/12/03 08:01:53;;;;;;;28.33;13.68;;;;;;;1.31;100.00;100753.09;4978927;28;20085;-73
2022/12/03 08:04:20;;;;;;;30.73;14.75;;;;;;;1.32;100.00;100755.69;4968182;28;20133;-72
2022/12/03 08:06:47;;;;;;;29.25;14.23;;;;;;;1.33;100.00;100753.94;4974699;28;20055;-71
2022/12/03 08:09:14;;;;;;;26.83;14.32;;;;;;;1.31;100.00;100760.91;4979401;28;20542;-72
2022/12/03 08:11:47;;;;;;;29.45;15.10;;;;;;;1.40;100.00;100758.28;4978598;28;20101;-73
2022/12/03 08:14:16;;;;;;;27.63;13.73;;;;;;;1.33;100.00;100738.31;4968555;28;20051;-70
2022/12/03 08:16:44;;;;;;;26.98;15.15;;;;;;;1.44;100.00;100761.72;4980671;28;20062;-72
2022/12/03 08:19:15;;;;;;;28.02;15.43;;;;;;;1.45;100.00;100761.72;4987064;28;20062;-72
2022/12/03 08:21:42;;;;;;;29.20;15.23;;;;;;;1.48;100.00;100758.25;4985013;28;20145;-71
2022/12/03 08:24:20;;;;;;;27.60;14.77;;;;;;;1.54;100.00;100768.66;4975961;28;20062;-73
2022/12/03 08:26:47;;;;;;;28.25;14.98;;;;;;;1.56;100.00;100765.19;4981280;28;20209;-72
2022/12/03 08:29:18;;;;;;;28.25;15.40;;;;;;;1.45;100.00;100739.97;4986555;28;20074;-72
2022/12/03 08:31:56;;;;;;;29.38;14.60;;;;;;;1.63;100.00;100766.00;4984344;28;20080;-71
2022/12/03 08:34:26;;;;;;;29.50;15.30;;;;;;;1.65;100.00;100767.72;4979091;28;20151;-72
2022/12/03 08:37:04;;;;;;;28.23;15.20;;;;;;;1.58;100.00;100739.03;4982696;28;20042;-73
2022/12/03 08:39:33;;;;;;;30.90;15.60;;;;;;;1.79;100.00;100759.81;4986345;28;20104;-72
2022/12/03 08:45:16;;;;;;;28.05;14.95;;;;;;;1.84;100.00;100762.41;4978051;28;20133;-72
2022/12/03 08:47:42;;;;;;;30.45;15.93;;;;;;;1.76;100.00;100762.44;4975853;28;20172;-73
2022/12/03 08:50:27;;;;;;;30.83;15.70;;;;;;;1.72;100.00;100759.00;4983294;28;21312;-72
2022/12/03 08:53:03;;;;;;;29.95;15.32;;;;;;;1.56;100.00;100741.69;4979391;28;20146;-71
2022/12/03 08:55:35;;;;;;;33.25;17.05;;;;;;;1.60;100.00;100761.66;4978963;28;20057;-72
2022/12/03 08:58:20;;;;;;;33.42;16.42;;;;;;;1.67;100.00;100765.13;4971942;28;20074;-70
2022/12/03 09:00:52;;;;;;;29.65;16.20;;;;;;;1.68;100.00;100757.28;4983473;28;20153;-71
2022/12/03 09:03:19;;;;;;;30.92;15.90;;;;;;;1.58;100.00;100724.25;4977545;28;20050;-71
2022/12/03 09:05:45;;;;;;;30.55;17.02;;;;;;;1.72;100.00;100743.34;4976655;28;20054;-71
2022/12/03 09:08:12;;;;;;;36.78;16.95;;;;;;;1.79;100.00;100752.00;4977572;28;20050;-70
2022/12/03 09:10:39;;;;;;;33.47;16.35;;;;;;;1.75;100.00;100748.53;4972024;28;20050;-71
2022/12/03 09:13:06;;;;;;;36.33;17.15;;;;;;;1.73;100.00;100746.81;4973465;28;20082;-72
2022/12/03 09:15:32;;;;;;;34.05;17.83;;;;;;;1.74;100.00;100746.78;4975622;28;20124;-74
2022/12/03 09:17:59;;;;;;;37.15;16.38;;;;;;;1.80;100.00;100756.34;4975049;28;20140;-72
2022/12/03 09:20:25;;;;;;;34.70;17.77;;;;;;;1.82;100.00;100751.97;4973951;28;20058;-73
2022/12/03 09:22:52;;;;;;;34.53;17.20;;;;;;;1.90;100.00;100757.16;4968569;28;20055;-74
2022/12/03 09:25:18;;;;;;;37.42;18.80;;;;;;;1.81;100.00;100741.53;4974560;28;20482;-72
2022/12/03 09:27:45;;;;;;;34.03;17.17;;;;;;;1.90;100.00;100750.19;4973939;28;20050;-73
2022/12/03 09:30:12;;;;;;;35.35;18.63;;;;;;;1.88;100.00;100743.25;4972627;28;20057;-70
2022/12/03 09:32:38;;;;;;;37.03;18.00;;;;;;;1.95;100.00;100756.25;4972329;28;20518;-71
2022/12/03 09:35:06;;;;;;;39.80;19.30;;;;;;;1.95;100.00;100758.00;4967047;28;20460;-75
2022/12/03 09:37:32;;;;;;;37.35;18.77;;;;;;;1.86;100.00;100747.63;4971385;28;20065;-72
2022/12/03 09:39:59;;;;;;;39.08;19.58;;;;;;;1.95;100.00;100750.16;4978372;28;20387;-73
2022/12/03 09:42:25;;;;;;;38.10;18.67;;;;;;;1.99;100.00;100749.28;4974926;28;20097;-73
2022/12/03 09:44:52;;;;;;;38.65;19.42;;;;;;;1.85;100.00;100719.78;4969335;28;20074;-73
2022/12/03 09:47:20;;;;;;;37.38;18.95;;;;;;;2.07;100.00;100739.63;4981111;28;20074;-73
2022/12/03 09:49:47;;;;;;;40.05;19.88;;;;;;;2.11;100.00;100729.16;4980144;28;20133;-71
2022/12/03 09:52:22;;;;;;;36.33;17.90;;;;;;;2.15;100.00;100730.00;4973593;28;20129;-73
2022/12/03 09:54:51;;;;;;;41.70;19.63;;;;;;;2.29;100.00;100736.00;4975445;28;20138;-68
2022/12/03 09:57:18;;;;;;;40.08;19.63;;;;;;;2.38;100.00;100725.44;4975934;28;20050;-73
2022/12/03 09:59:45;;;;;;;36.10;18.40;;;;;;;2.49;100.00;100721.91;4982188;28;20133;-74
2022/12/03 10:02:26;;;;;;;36.83;19.15;;;;;;;2.53;100.00;100723.56;4979860;28;20107;-73
2022/12/03 10:04:52;;;;;;;36.95;18.90;;;;;;;2.42;100.00;100732.38;4968463;28;20042;-73
2022/12/03 10:07:20;;;;;;;35.97;19.20;;;;;;;2.19;100.00;100692.53;4977163;28;20103;-75
2022/12/03 10:09:47;;;;;;;41.67;20.05;;;;;;;2.33;100.00;100729.00;4975306;28;20779;-72
2022/12/03 10:12:15;;;;;;;36.60;19.52;;;;;;;2.36;100.00;100715.91;4978465;28;20051;-73
2022/12/03 10:14:41;;;;;;;40.75;20.42;;;;;;;2.38;100.00;100703.66;4974724;28;20685;-75
2022/12/03 10:17:10;;;;;;;39.75;20.65;;;;;;;2.32;100.00;100701.13;4976031;28;20172;-75
2022/12/03 10:19:38;;;;;;;39.70;19.27;;;;;;;2.40;100.00;100699.31;4977326;28;20101;-72
2022/12/03 10:22:05;;;;;;;40.53;20.17;;;;;;;2.42;100.00;100693.19;4980872;28;20062;-75
2022/12/03 10:24:33;;;;;;;42.38;20.63;;;;;;;2.39;100.00;100703.66;4971908;28;20116;-75
2022/12/03 10:27:03;;;;;;;40.28;20.63;;;;;;;2.39;100.00;100690.59;4981245;28;20217;-73
2022/12/03 10:29:32;;;;;;;42.90;20.17;;;;;;;2.37;100.00;100681.91;4982674;28;20069;-70
2022/12/03 10:32:00;;;;;;;;;;;;;;;2.47;100.00;100688.78;4977408;28;20046;-76
2022/12/03 10:34:30;;;;;;;46.15;21.63;;;;;;;2.42;100.00;100685.34;4973816;28;20034;-71
2022/12/03 10:37:20;;;;;;;41.95;21.38;;;;;;;2.28;100.00;100687.22;4988083;28;20418;-73
2022/12/03 10:39:59;;;;;;;45.25;21.40;;;;;;;2.29;100.00;100688.09;4986495;28;20047;-75
2022/12/03 10:42:31;;;;;;;44.70;21.48;;;;;;;2.21;100.00;100680.28;4976844;28;20050;-75
2022/12/03 10:45:16;;;;;;;45.88;22.20;;;;;;;2.23;100.00;100695.97;4969679;28;20057;-73
2022/12/03 10:48:02;;;;;;;45.25;21.98;;;;;;;2.19;100.00;100696.88;4977391;28;20054;-73
2022/12/03 10:50:29;;;;;;;44.40;22.00;;;;;;;2.17;100.00;100693.41;4976715;28;20122;-74
2022/12/03 10:52:55;;;;;;;46.25;22.35;;;;;;;2.14;100.00;100688.22;4983789;28;20228;-72
2022/12/03 10:55:22;;;;;;;44.17;22.05;;;;;;;2.16;100.00;100683.84;4977289;28;20058;-75
2022/12/03 10:57:49;;;;;;;48.38;22.80;;;;;;;2.17;100.00;100680.34;4978589;28;20112;-72
2022/12/03 11:00:18;;;;;;;44.92;21.77;;;;;;;2.18;100.00;100682.97;4988644;28;20054;-72
2022/12/03 11:02:46;;;;;;;46.03;21.60;;;;;;;2.16;100.00;100673.41;4986098;28;20053;-74
2022/12/03 11:05:27;;;;;;;48.80;22.85;;;;;;;2.14;100.00;100673.41;4971481;28;20146;-75
2022/12/03 11:07:55;;;;;;;45.88;22.85;;;;;;;2.08;100.00;100674.31;4978079;28;20050;-74
2022/12/03 11:10:22;;;;;;;48.80;22.60;;;;;;;2.05;100.00;100671.72;4981438;28;20581;-72
2022/12/03 11:13:28;;;;;;;46.30;22.30;;;;;;;2.08;100.00;100670.84;4981193;28;20058;-75
2022/12/03 11:15:58;;;;;;;47.45;21.63;;;;;;;1.98;100.00;100653.50;4974825;28;20077;-74
2022/12/03 11:18:37;;;;;;;47.92;21.80;;;;;;;2.07;100.00;100667.34;4986029;28;20470;-72
2022/12/03 11:21:10;;;;;;;46.55;22.35;;;;;;;2.05;100.00;100653.44;4979265;28;20376;-75
2022/12/03 11:23:45;;;;;;;45.17;21.98;;;;;;;2.06;100.00;100652.56;4976144;28;20057;-73
2022/12/03 11:26:16;;;;;;;47.20;22.02;;;;;;;2.10;100.00;100650.78;4974704;28;20050;-71
2022/12/03 11:28:45;;;;;;;48.15;22.55;;;;;;;2.19;100.00;100650.72;4976541;28;22226;-74
2022/12/03 11:31:45;;;;;;;44.80;21.92;;;;;;;2.21;100.00;100650.69;4979372;28;21603;-71
2022/12/03 11:34:17;;;;;;;43.33;20.70;;;;;;;2.14;100.00;100621.16;4974530;28;20177;-75
2022/12/03 11:37:08;;;;;;;42.90;21.58;;;;;;;2.28;100.00;100655.84;4976060;28;20054;-75
2022/12/03 11:39:50;;;;;;;42.42;20.67;;;;;;;2.40;100.00;100647.91;4977727;28;20058;-73
2022/12/03 11:42:24;;;;;;;47.17;21.60;;;;;;;2.31;100.00;100621.00;4980614;28;20042;-74
2022/12/03 11:45:03;;;;;;;47.17;21.58;;;;;;;2.43;100.00;100637.41;4970714;28;20097;-75